createdAt,value
2022-09-21T00:04:40.759Z,0
2022-09-21T00:09:58.075Z,0
2022-09-21T00:15:15.497Z,0
2022-09-21T00:20:32.862Z,0
2022-09-21T00:25:50.134Z,0
2022-09-21T00:31:14.809Z,0
2022-09-21T00:36:32.396Z,0
2022-09-21T00:41:56.809Z,0
2022-09-21T00:47:14.304Z,0
2022-09-21T00:52:34.588Z,0
2022-09-21T00:57:51.941Z,0
2022-09-21T01:03:09.217Z,0
2022-09-21T01:08:26.488Z,0
2022-09-21T01:13:46.827Z,0
2022-09-21T01:19:03.973Z,0
2022-09-21T01:24:21.461Z,0
2022-09-21T01:29:39.003Z,0
2022-09-21T01:34:56.231Z,0
2022-09-21T01:40:17.767Z,0
2022-09-21T01:45:35.278Z,0
2022-09-21T01:50:52.673Z,0
2022-09-21T02:01:35.773Z,0
2022-09-21T02:06:53.228Z,0
2022-09-21T02:12:10.490Z,0
2022-09-21T02:17:28.543Z,0
2022-09-21T02:22:46.260Z,0
2022-09-21T02:28:06.504Z,0
2022-09-21T02:33:23.904Z,0
2022-09-21T02:38:40.927Z,0
2022-09-21T02:43:58.156Z,0
2022-09-21T02:49:22.607Z,0
2022-09-21T02:54:40.288Z,0
2022-09-21T02:59:57.390Z,0
2022-09-21T03:05:14.771Z,0
2022-09-21T03:10:32.145Z,0
2022-09-21T03:15:49.266Z,0
2022-09-21T03:26:58.628Z,0
2022-09-21T03:32:15.947Z,0
2022-09-21T03:37:39.249Z,0
2022-09-21T03:43:02.137Z,0
2022-09-21T03:48:20.126Z,0
2022-09-21T03:53:54.633Z,0
2022-09-21T03:59:14.236Z,0
2022-09-21T04:04:31.675Z,0
2022-09-21T04:09:55.890Z,0
2022-09-21T04:15:13.258Z,0
2022-09-21T04:20:30.581Z,0
2022-09-21T04:25:47.742Z,0
2022-09-21T04:36:24.804Z,0
2022-09-21T04:41:41.934Z,0
2022-09-21T04:48:32.556Z,0
2022-09-21T04:59:07.551Z,0.5
2022-09-21T05:04:24.440Z,26.7
2022-09-21T05:09:45.715Z,62.1
2022-09-21T05:15:02.824Z,124.2
2022-09-21T05:20:22.675Z,217.1
2022-09-21T05:25:39.927Z,342.5
2022-09-21T05:31:16.495Z,498.3
2022-09-21T05:36:35.022Z,675
2022-09-21T05:41:54.446Z,872.1
2022-09-21T05:47:11.840Z,1103.3
2022-09-21T05:52:28.898Z,1343.3
2022-09-21T05:57:46.070Z,1746.7
2022-09-21T06:03:03.097Z,2095
2022-09-21T06:08:25.147Z,2311.7
2022-09-21T06:13:42.377Z,2405
2022-09-21T06:19:02.590Z,2482.5
2022-09-21T06:24:19.970Z,2675.4
2022-09-21T06:29:37.038Z,3058.3
2022-09-21T06:34:53.983Z,3495.4
2022-09-21T06:40:11.130Z,3146.7
2022-09-21T06:45:28.355Z,3520
2022-09-21T06:50:45.315Z,3025.8
2022-09-21T06:56:11.733Z,3105.8
2022-09-21T07:01:28.922Z,2749.6
2022-09-21T07:06:45.784Z,3094.6
2022-09-21T07:12:03.031Z,3873.8
2022-09-21T07:18:05.125Z,4729.6
2022-09-21T07:23:22.978Z,5789.2
2022-09-21T07:28:42.572Z,5973.3
2022-09-21T07:33:59.472Z,7020.4
2022-09-21T07:39:16.825Z,7582.9
2022-09-21T07:49:51.582Z,8964.2
2022-09-21T07:55:08.919Z,10539.6
2022-09-21T08:00:26.540Z,11388.7
2022-09-21T08:05:44.438Z,10867.5
2022-09-21T08:11:01.055Z,9212.1
2022-09-21T08:16:18.273Z,8477.5
2022-09-21T08:21:35.520Z,13971.7
2022-09-21T08:33:06.447Z,12995
2022-09-21T08:38:22.142Z,15457.9
2022-09-21T08:43:40.458Z,18613.3
2022-09-21T08:49:08.926Z,8275.8
2022-09-21T08:54:25.599Z,24079.6
2022-09-21T08:59:43.320Z,23352.9
2022-09-21T09:05:00.331Z,24318.3
2022-09-21T10:12:00.284Z,28680
2022-09-21T11:35:18.485Z,10002.1
2022-09-21T11:40:35.643Z,30811.7
2022-09-21T12:09:32.551Z,24847.5
2022-09-21T12:32:35.354Z,9246.2
2022-09-21T12:37:50.848Z,26211.7
2022-09-21T13:00:28.065Z,21766.7
2022-09-21T13:11:54.853Z,22145.4
2022-09-21T13:17:11.983Z,22271.7
2022-09-21T13:28:38.488Z,19531.2
2022-09-21T13:46:16.058Z,18445.8
2022-09-21T14:02:45.535Z,5581.7
2022-09-21T14:13:26.442Z,8069.2
2022-09-21T14:18:42.629Z,5709.2
2022-09-21T14:35:46.768Z,12813.3
2022-09-21T14:41:03.966Z,11320.8
2022-09-21T14:46:31.432Z,4691.7
2022-09-21T14:51:46.579Z,3755
2022-09-21T14:57:05.265Z,3882.9
2022-09-21T15:02:21.375Z,3498.8
2022-09-21T15:07:40.758Z,3602.1
2022-09-21T15:12:57.329Z,3342.1
2022-09-21T15:18:14.018Z,3119.2
2022-09-21T15:23:30.844Z,3011.3
2022-09-21T15:29:08.193Z,3011.3
2022-09-21T15:34:25.642Z,2870
2022-09-21T15:39:42.797Z,2811.3
2022-09-21T15:45:07.214Z,2750.4
2022-09-21T15:50:24.302Z,2636.7
2022-09-21T15:55:41.178Z,2550.4
2022-09-21T16:06:18.181Z,2384.2
2022-09-21T16:11:34.913Z,2314.2
2022-09-21T16:16:51.553Z,2183.8
2022-09-21T16:22:11.612Z,2063.3
2022-09-21T16:27:28.507Z,1977.9
2022-09-21T16:32:45.485Z,1903.8
2022-09-21T16:38:02.318Z,1761.7
2022-09-21T16:43:19.411Z,1579.6
2022-09-21T16:48:36.307Z,1383.3
2022-09-21T16:53:53.177Z,1174.6
2022-09-21T16:59:09.976Z,964.6
2022-09-21T17:04:26.792Z,838.7
2022-09-21T17:09:43.595Z,748.7
2022-09-21T17:15:00.452Z,640.8
2022-09-21T17:25:34.112Z,313.3
2022-09-21T17:36:17.383Z,135
2022-09-21T17:41:34.286Z,82.9
2022-09-21T17:46:51.615Z,40
2022-09-21T17:52:08.746Z,17.1
2022-09-21T17:57:28.561Z,0
2022-09-21T18:02:51.103Z,2.2
2022-09-21T18:08:08.539Z,0.6
2022-09-21T18:13:25.667Z,0.1
2022-09-21T18:18:42.972Z,0
2022-09-21T18:24:00.158Z,0
2022-09-21T18:29:38.248Z,0
2022-09-21T18:41:01.286Z,0
2022-09-21T18:46:18.774Z,0
2022-09-21T18:51:39.065Z,0
2022-09-21T18:56:56.225Z,0
2022-09-21T19:02:13.798Z,0
2022-09-21T19:07:40.278Z,0
2022-09-21T19:12:57.800Z,0
2022-09-21T19:23:35.397Z,0
2022-09-21T19:28:52.622Z,0
2022-09-21T19:34:09.845Z,0
2022-09-21T19:39:27.203Z,0
2022-09-21T19:44:44.347Z,0
2022-09-21T19:50:01.686Z,0
2022-09-21T19:55:19.093Z,0
2022-09-21T20:00:36.223Z,0
2022-09-21T20:10:55.947Z,0
2022-09-21T20:16:17.067Z,0
2022-09-21T20:21:39.448Z,0
2022-09-21T20:26:56.674Z,0
2022-09-21T20:32:13.839Z,0
2022-09-21T20:37:31.208Z,0
2022-09-21T20:42:48.514Z,0
2022-09-21T20:48:05.948Z,0
2022-09-21T20:53:23.314Z,0
2022-09-21T20:58:43.018Z,0
2022-09-21T21:04:00.651Z,0
2022-09-21T21:09:17.987Z,0
2022-09-21T21:19:52.612Z,0
2022-09-21T21:25:13.106Z,0
2022-09-21T21:30:30.551Z,0
2022-09-21T21:35:47.788Z,0
2022-09-21T21:41:05.008Z,0
2022-09-21T21:46:22.828Z,0
2022-09-21T21:51:40.539Z,0
2022-09-21T21:56:57.709Z,0
2022-09-21T22:02:15.003Z,0
2022-09-21T22:07:32.570Z,0
2022-09-21T22:12:50.040Z,0
2022-09-21T22:18:07.545Z,0
2022-09-21T22:23:25.322Z,0
2022-09-21T22:28:42.719Z,0
2022-09-21T22:34:01.488Z,0
2022-09-21T22:39:18.946Z,0
2022-09-21T22:44:36.402Z,0
2022-09-21T22:49:55.666Z,0
2022-09-21T22:55:13.035Z,0
2022-09-21T23:00:30.499Z,0
2022-09-21T23:05:48.192Z,0
2022-09-21T23:11:05.418Z,0
2022-09-21T23:16:22.949Z,0
2022-09-21T23:21:40.387Z,0
2022-09-21T23:26:57.809Z,0
2022-09-21T23:32:15.105Z,0
2022-09-21T23:37:32.477Z,0
2022-09-21T23:47:57.184Z,0
2022-09-21T23:53:14.439Z,0
2022-09-21T23:58:31.732Z,0
